Kempton, North Dakota
Current Conditions -  °F | °C
As of 2:07 PM on Thursday 29 Jan 2015 (Local Time) from KRDR Reporting Station
Broken Clouds Broken Clouds  
Wind Chill: -3°   Ceiling: 2300
Heat Index: 14°   Visibility: 10mi
Dew Point:   Wind: 18mph
Humidity: 62%   Direction: 350°N
Pressure: 30.53"   Gusts: 22mph
Location:  47.7445°N, 97.5815°W
Report Text: KRDR 292007Z AUTO 35016G19KT 10SM BKN023 M10/M16 A3053 RMK AO2 BKN V OVC
Loading
Personal Weather Stations






























Interactive Weather Map New forecast layout! Learn more

10-Day Weather Forecast

Advertisements
Track Severe Weather on mobile